createdAt,value
2023-03-16T00:01:27.070Z,101745.44
2023-03-16T00:03:54.904Z,101745.44
2023-03-16T00:06:25.194Z,101738.41
2023-03-16T00:08:58.812Z,101735.72
2023-03-16T00:11:27.979Z,101731.56
2023-03-16T00:13:55.792Z,101727.88
2023-03-16T00:16:23.590Z,101730.75
2023-03-16T00:18:51.329Z,101729.91
2023-03-16T00:21:19.075Z,101735.28
2023-03-16T00:23:46.784Z,101726.59
2023-03-16T00:26:15.141Z,101725.56
2023-03-16T00:28:44.207Z,101716.91
2023-03-16T00:31:14.797Z,101712.56
2023-03-16T00:33:43.833Z,101710.91
2023-03-16T00:36:11.755Z,101710.69
2023-03-16T00:38:45.401Z,101712.56
2023-03-16T00:41:15.363Z,101714.41
2023-03-16T00:43:45.587Z,101707.78
2023-03-16T00:46:15.053Z,101703.06
2023-03-16T00:48:44.495Z,101704.09
2023-03-16T00:51:14.813Z,101705.09
2023-03-16T00:53:44.387Z,101703.44
2023-03-16T00:56:13.743Z,101697.25
2023-03-16T00:58:43.109Z,101693.94
2023-03-16T01:01:16.211Z,101685.91
2023-03-16T01:03:44.505Z,101691.06
2023-03-16T01:06:14.187Z,101681.38
2023-03-16T01:08:42.900Z,101674.34
2023-03-16T01:11:12.804Z,101670.84
2023-03-16T01:13:40.936Z,101666.31
2023-03-16T01:16:09.811Z,101667.31
2023-03-16T01:18:38.925Z,101659.47
2023-03-16T01:21:08.964Z,101662.16
2023-03-16T01:23:37.814Z,101659.47
2023-03-16T01:26:05.768Z,101649.78
2023-03-16T01:28:34.365Z,101638.44
2023-03-16T01:31:06.599Z,101639.91
2023-03-16T01:33:35.102Z,101633.91
2023-03-16T01:36:08.314Z,101634.72
2023-03-16T01:38:36.460Z,101626.69
2023-03-16T01:41:04.183Z,101629.56
2023-03-16T01:43:33.316Z,101620.50
2023-03-16T01:46:22.738Z,101623.19
2023-03-16T01:48:56.405Z,101623.38
2023-03-16T01:51:30.588Z,101626.88
2023-03-16T01:54:04.362Z,101626.88
2023-03-16T01:56:37.201Z,101620.88
2023-03-16T01:59:10.871Z,101622.53
2023-03-16T02:01:38.993Z,101619.03
2023-03-16T02:04:19.000Z,101605.75
2023-03-16T02:06:48.586Z,101614.50
2023-03-16T02:09:17.642Z,101616.16
2023-03-16T02:11:45.345Z,101619.22
2023-03-16T02:14:14.149Z,101612.00
2023-03-16T02:16:42.825Z,101613.69
2023-03-16T02:19:17.758Z,101612.19
2023-03-16T02:21:55.267Z,101616.53
2023-03-16T02:24:23.536Z,101608.50
2023-03-16T02:26:56.053Z,101603.34
2023-03-16T02:29:46.479Z,101597.97
2023-03-16T02:32:15.726Z,101602.69
2023-03-16T02:34:44.106Z,101602.69
2023-03-16T02:37:13.032Z,101603.72
2023-03-16T02:39:43.967Z,101600.22
2023-03-16T02:42:16.426Z,101598.34
2023-03-16T02:44:49.657Z,101593.00
2023-03-16T02:47:25.737Z,101596.69
2023-03-16T02:49:53.450Z,101588.84
2023-03-16T02:52:21.168Z,101590.50
2023-03-16T02:54:48.833Z,101592.56
2023-03-16T02:57:16.583Z,101592.56
2023-03-16T02:59:45.728Z,101588.22
2023-03-16T03:02:13.481Z,101577.31
2023-03-16T03:04:41.844Z,101579.34
2023-03-16T03:07:09.786Z,101578.31
2023-03-16T03:09:37.480Z,101577.69
2023-03-16T03:12:05.796Z,101569.00
2023-03-16T03:14:38.005Z,101564.47
2023-03-16T03:17:08.295Z,101567.16
2023-03-16T03:19:36.579Z,101572.53
2023-03-16T03:22:06.426Z,101567.34
2023-03-16T03:24:35.315Z,101563.84
2023-03-16T03:27:05.783Z,101568.56
2023-03-16T03:29:35.264Z,101564.03
2023-03-16T03:32:03.485Z,101559.50
2023-03-16T03:34:32.837Z,101567.53
2023-03-16T03:37:01.160Z,101567.53
2023-03-16T03:39:28.894Z,101565.06
2023-03-16T03:41:56.575Z,101570.56
2023-03-16T03:44:24.978Z,101565.22
2023-03-16T03:46:52.684Z,101562.72
2023-03-16T03:49:20.728Z,101560.03
2023-03-16T03:51:49.796Z,101559.03
2023-03-16T03:54:17.504Z,101562.53
2023-03-16T03:56:45.182Z,101561.50
2023-03-16T03:59:12.966Z,101557.03
2023-03-16T04:01:40.651Z,101556.16
2023-03-16T04:04:08.404Z,101545.63
2023-03-16T04:06:36.344Z,101537.78
2023-03-16T04:09:05.494Z,101540.47
2023-03-16T04:11:33.162Z,101535.13
2023-03-16T04:14:01.108Z,101528.94
2023-03-16T04:16:28.881Z,101534.28
2023-03-16T04:18:56.946Z,101530.78
2023-03-16T04:21:25.172Z,101531.59
2023-03-16T04:23:54.290Z,101528.09
2023-03-16T04:26:25.565Z,101526.44
2023-03-16T04:28:53.709Z,101528.94
2023-03-16T04:31:21.512Z,101526.44
2023-03-16T04:33:49.486Z,101522.28
2023-03-16T04:36:17.464Z,101526.81
2023-03-16T04:38:45.172Z,101527.66
2023-03-16T04:41:12.874Z,101530.13
2023-03-16T04:43:43.222Z,101523.94
2023-03-16T04:46:11.816Z,101524.13
2023-03-16T04:48:39.544Z,101527.66
2023-03-16T04:51:07.734Z,101522.28
2023-03-16T04:53:35.506Z,101522.28
2023-03-16T04:56:04.094Z,101522.28
2023-03-16T04:58:31.848Z,101517.94
2023-03-16T05:01:01.071Z,101524.13
2023-03-16T05:03:28.783Z,101519.63
2023-03-16T05:05:56.529Z,101516.28
2023-03-16T05:08:24.253Z,101518.16
2023-03-16T05:10:52.029Z,101512.78
2023-03-16T05:13:19.687Z,101507.63
2023-03-16T05:15:47.414Z,101504.75
2023-03-16T05:18:16.620Z,101499.41
2023-03-16T05:20:45.530Z,101496.09
2023-03-16T05:23:13.232Z,101503.94
2023-03-16T05:25:40.980Z,101497.75
2023-03-16T05:28:08.751Z,101498.38
2023-03-16T05:30:36.886Z,101494.69
2023-03-16T05:33:05.073Z,101490.16
2023-03-16T05:35:34.226Z,101490.16
2023-03-16T05:38:02.638Z,101485.81
2023-03-16T05:40:30.520Z,101486.84
2023-03-16T05:43:00.419Z,101488.69
2023-03-16T05:45:29.060Z,101484.34
2023-03-16T05:47:57.287Z,101484.16
2023-03-16T05:50:26.576Z,101477.78
2023-03-16T05:52:55.798Z,101474.09
2023-03-16T05:55:23.492Z,101471.59
2023-03-16T05:57:51.203Z,101470.78
2023-03-16T06:00:20.910Z,101476.13
2023-03-16T06:02:51.221Z,101471.41
2023-03-16T06:05:21.817Z,101456.69
2023-03-16T06:07:50.269Z,101476.13
2023-03-16T06:10:19.751Z,101473.25
2023-03-16T06:12:47.789Z,101477.78
2023-03-16T06:15:15.705Z,101478.81
2023-03-16T06:17:43.406Z,101477.97
2023-03-16T06:20:14.373Z,101466.63
2023-03-16T06:22:43.282Z,101478.16
2023-03-16T06:25:14.091Z,101477.34
2023-03-16T06:27:43.834Z,101482.69
2023-03-16T06:30:14.025Z,101469.88
2023-03-16T06:32:43.235Z,101475.50
2023-03-16T06:35:11.401Z,101470.13
2023-03-16T06:37:46.945Z,101457.56
2023-03-16T06:40:14.953Z,101463.97
2023-03-16T06:42:46.325Z,101460.44
2023-03-16T06:45:16.546Z,101467.66
2023-03-16T06:47:44.437Z,101462.09
2023-03-16T06:50:12.833Z,101459.44
2023-03-16T06:52:41.519Z,101464.53
2023-03-16T06:55:12.468Z,101461.84
2023-03-16T06:57:40.317Z,101467.41
2023-03-16T07:00:11.771Z,101465.34
2023-03-16T07:02:40.553Z,101463.31
2023-03-16T07:05:11.059Z,101466.63
2023-03-16T07:07:38.782Z,101468.28
2023-03-16T07:10:07.151Z,101465.63
2023-03-16T07:12:34.990Z,101460.63
2023-03-16T07:15:02.716Z,101456.50
2023-03-16T07:17:32.185Z,101448.47
2023-03-16T07:20:00.013Z,101446.63
2023-03-16T07:22:27.764Z,101444.13
2023-03-16T07:24:57.458Z,101449.47
2023-03-16T07:27:25.568Z,101441.25
2023-03-16T07:29:53.495Z,101439.41
2023-03-16T07:32:21.693Z,101440.44
2023-03-16T07:34:50.829Z,101439.59
2023-03-16T07:37:24.996Z,101445.78
2023-03-16T07:39:53.369Z,101450.94
2023-03-16T07:42:22.640Z,101454.47
2023-03-16T07:44:51.913Z,101451.78
2023-03-16T07:47:19.746Z,101449.09
2023-03-16T07:49:47.496Z,101451.59
2023-03-16T07:52:16.622Z,101450.56
2023-03-16T07:54:44.381Z,101448.72
2023-03-16T07:57:12.608Z,101449.53
2023-03-16T07:59:40.348Z,101445.66
2023-03-16T08:02:11.759Z,101453.06
2023-03-16T08:04:42.339Z,101454.72
2023-03-16T08:07:10.811Z,101455.53
2023-03-16T08:09:40.080Z,101438.66
2023-03-16T08:12:09.502Z,101453.69
2023-03-16T08:14:38.113Z,101449.34
2023-03-16T08:17:07.454Z,101444.44
2023-03-16T08:19:35.368Z,101442.78
2023-03-16T08:22:03.657Z,101450.81
2023-03-16T08:24:31.494Z,101448.97
2023-03-16T08:27:01.076Z,101450.63
2023-03-16T08:29:28.845Z,101453.31
2023-03-16T08:31:57.596Z,101452.09
2023-03-16T08:34:26.819Z,101452.72
2023-03-16T08:36:55.304Z,101450.25
2023-03-16T08:39:23.022Z,101457.25
2023-03-16T08:41:51.121Z,101446.53
2023-03-16T08:44:20.166Z,101444.53
2023-03-16T08:46:48.082Z,101446.34
2023-03-16T08:49:15.926Z,101438.31
2023-03-16T08:51:44.931Z,101440.00
2023-03-16T08:54:12.803Z,101450.72
2023-03-16T08:56:40.492Z,101445.81
2023-03-16T08:59:16.810Z,101434.91
2023-03-16T09:01:52.948Z,101433.88
2023-03-16T09:04:21.570Z,101429.03
2023-03-16T09:07:02.303Z,101423.78
2023-03-16T09:09:35.766Z,101418.53
2023-03-16T09:12:04.256Z,101421.31
2023-03-16T09:14:32.208Z,101408.41
2023-03-16T09:17:01.341Z,101408.53
2023-03-16T09:19:34.854Z,101412.91
2023-03-16T09:22:08.577Z,101419.16
2023-03-16T09:24:36.258Z,101417.91
2023-03-16T09:27:05.293Z,101412.94
2023-03-16T09:29:33.108Z,101421.63
2023-03-16T09:32:02.254Z,101416.09
2023-03-16T09:34:30.581Z,101410.59
2023-03-16T09:36:59.158Z,101413.91
2023-03-16T09:39:26.922Z,101406.69
2023-03-16T09:42:01.120Z,101406.44
2023-03-16T09:44:39.893Z,101403.34
2023-03-16T09:47:12.944Z,101412.00
2023-03-16T09:49:46.451Z,101415.31
2023-03-16T09:52:28.064Z,101406.44
2023-03-16T09:55:01.861Z,101400.25
2023-03-16T09:57:34.770Z,101398.63
2023-03-16T10:00:17.257Z,101404.34
2023-03-16T10:02:59.901Z,101388.81
2023-03-16T10:05:28.334Z,101387.97
2023-03-16T10:08:07.786Z,101380.72
2023-03-16T10:10:52.135Z,101383.00
2023-03-16T10:13:31.619Z,101380.09
2023-03-16T10:16:04.297Z,101374.72
2023-03-16T10:18:40.393Z,101368.94
2023-03-16T10:21:14.168Z,101369.34
2023-03-16T10:23:44.095Z,101367.47
2023-03-16T10:26:16.772Z,101366.84
2023-03-16T10:28:45.601Z,101365.19
2023-03-16T10:31:14.762Z,101364.56
2023-03-16T10:33:44.011Z,101359.22
2023-03-16T10:36:17.053Z,101362.34
2023-03-16T10:38:49.175Z,101363.22
2023-03-16T10:41:23.564Z,101361.19
2023-03-16T10:43:53.114Z,101361.63
2023-03-16T10:46:21.066Z,101350.41
2023-03-16T10:49:00.227Z,101353.91
2023-03-16T10:51:31.019Z,101345.78
2023-03-16T10:54:10.237Z,101347.78
2023-03-16T10:56:38.463Z,101339.41
2023-03-16T10:59:25.269Z,101346.44
2023-03-16T11:01:53.019Z,101331.56
2023-03-16T11:04:22.140Z,101336.19
2023-03-16T11:06:54.746Z,101333.56
2023-03-16T11:09:26.134Z,101328.66
2023-03-16T11:11:54.045Z,101333.03
2023-03-16T11:14:26.223Z,101328.09
2023-03-16T11:17:02.314Z,101314.47
2023-03-16T11:19:34.516Z,101309.13
2023-03-16T11:22:07.395Z,101303.34
2023-03-16T11:24:46.615Z,101303.34
2023-03-16T11:27:23.023Z,101301.91
2023-03-16T11:30:02.819Z,101294.47
2023-03-16T11:32:34.518Z,101297.34
2023-03-16T11:35:08.046Z,101298.59
2023-03-16T11:37:51.937Z,101302.31
2023-03-16T11:40:31.217Z,101285.78
2023-03-16T11:43:08.391Z,101283.09
2023-03-16T11:45:43.163Z,101282.28
2023-03-16T11:48:33.294Z,101276.69
2023-03-16T11:51:10.388Z,101275.84
2023-03-16T11:53:52.624Z,101267.59
2023-03-16T11:56:33.008Z,101263.25
2023-03-16T11:59:37.805Z,101266.75
2023-03-16T12:02:27.306Z,101267.59
2023-03-16T12:05:11.613Z,101250.84
2023-03-16T12:07:56.736Z,101244.81
2023-03-16T12:10:27.074Z,101237.56
2023-03-16T12:13:03.395Z,101230.75
2023-03-16T12:15:38.438Z,101242.94
2023-03-16T12:18:16.343Z,101239.22
2023-03-16T12:20:51.427Z,101242.53
2023-03-16T12:23:23.465Z,101248.72
2023-03-16T12:25:53.435Z,101244.38
2023-03-16T12:28:25.058Z,101244.56
2023-03-16T12:31:13.955Z,101236.50
2023-03-16T12:33:53.920Z,101232.78
2023-03-16T12:36:55.889Z,101223.25
2023-03-16T12:39:45.719Z,101203.41
2023-03-16T12:42:29.392Z,101196.38
2023-03-16T12:45:02.971Z,101193.06
2023-03-16T12:47:34.760Z,101194.09
2023-03-16T12:50:07.432Z,101180.63
2023-03-16T12:52:43.154Z,101171.94
2023-03-16T12:55:16.658Z,101166.34
2023-03-16T12:57:45.999Z,101165.13
2023-03-16T13:00:16.129Z,101164.88
2023-03-16T13:02:50.822Z,101163.63
2023-03-16T13:05:29.953Z,101165.47
2023-03-16T13:08:08.033Z,101154.09
2023-03-16T13:10:38.692Z,101150.59
2023-03-16T13:13:13.086Z,101151.41
2023-03-16T13:15:40.859Z,101159.88
2023-03-16T13:18:23.845Z,101153.66
2023-03-16T13:20:55.784Z,101147.03
2023-03-16T13:23:27.474Z,101128.00
2023-03-16T13:26:07.151Z,101119.47
2023-03-16T13:28:38.717Z,101127.31
2023-03-16T13:31:07.572Z,101130.59
2023-03-16T13:33:37.086Z,101121.72
2023-03-16T13:36:07.173Z,101119.03
2023-03-16T13:38:35.092Z,101109.91
2023-03-16T13:41:09.948Z,101110.53
2023-03-16T13:43:40.704Z,101110.31
2023-03-16T13:46:16.001Z,101113.81
2023-03-16T13:48:44.439Z,101100.97
2023-03-16T13:51:17.312Z,101095.38
2023-03-16T13:53:45.988Z,101096.59
2023-03-16T13:56:17.970Z,101083.13
2023-03-16T13:58:48.346Z,101079.19
2023-03-16T14:01:25.343Z,101076.06
2023-03-16T14:03:54.662Z,101068.38
2023-03-16T14:06:26.619Z,101068.97
2023-03-16T14:08:58.713Z,101063.38
2023-03-16T14:11:29.491Z,101065.13
2023-03-16T14:13:58.814Z,101056.59
2023-03-16T14:16:29.757Z,101067.59
2023-03-16T14:19:04.413Z,101057.41
2023-03-16T14:21:35.029Z,101041.88
2023-03-16T14:24:05.500Z,101042.47
2023-03-16T14:26:42.517Z,101042.47
2023-03-16T14:29:20.025Z,101030.66
2023-03-16T14:31:47.745Z,101029.63
2023-03-16T14:34:28.905Z,101028.34
2023-03-16T14:37:07.301Z,101019.63
2023-03-16T14:39:35.430Z,101027.31
2023-03-16T14:42:08.566Z,101025.22
2023-03-16T14:44:39.321Z,101019.56
2023-03-16T14:47:08.140Z,101013.19
2023-03-16T14:49:38.134Z,101015.34
2023-03-16T14:52:09.342Z,101015.72
2023-03-16T14:54:37.457Z,101013.59
2023-03-16T14:57:07.221Z,101008.13
2023-03-16T14:59:35.162Z,101014.66
2023-03-16T15:02:04.205Z,101004.81
2023-03-16T15:04:34.959Z,100998.69
2023-03-16T15:07:08.793Z,100996.88
2023-03-16T15:09:39.762Z,100992.53
2023-03-16T15:12:15.492Z,100996.00
2023-03-16T15:15:00.995Z,100996.22
2023-03-16T15:17:28.705Z,100999.25
2023-03-16T15:19:56.396Z,100999.34
2023-03-16T15:22:29.481Z,100995.94
2023-03-16T15:24:58.117Z,100988.56
2023-03-16T15:27:34.061Z,100980.69
2023-03-16T15:30:01.915Z,100979.28
2023-03-16T15:32:29.755Z,100974.94
2023-03-16T15:34:57.708Z,100964.63
2023-03-16T15:37:27.715Z,100966.28
2023-03-16T15:39:55.652Z,100968.38
2023-03-16T15:42:23.665Z,100964.03
2023-03-16T15:44:52.809Z,100964.47
2023-03-16T15:47:20.716Z,100962.25
2023-03-16T15:49:48.508Z,100956.28
2023-03-16T15:52:26.627Z,100956.84
2023-03-16T15:54:57.294Z,100952.88
2023-03-16T15:57:25.426Z,100956.84
2023-03-16T15:59:54.666Z,100952.28
2023-03-16T16:02:28.502Z,100949.84
2023-03-16T16:04:57.072Z,100944.66
2023-03-16T16:07:24.837Z,100943.84
2023-03-16T16:09:52.737Z,100936.81
2023-03-16T16:12:26.705Z,100944.91
2023-03-16T16:14:56.949Z,100939.16
2023-03-16T16:17:43.878Z,100930.25
2023-03-16T16:20:20.451Z,100928.59
2023-03-16T16:22:48.272Z,100929.66
2023-03-16T16:25:16.514Z,100929.88
2023-03-16T16:27:45.035Z,100934.00
2023-03-16T16:30:21.036Z,100931.53
2023-03-16T16:32:49.376Z,100928.00
2023-03-16T16:35:19.479Z,100924.50
2023-03-16T16:37:47.478Z,100929.88
2023-03-16T16:40:17.598Z,100918.47
2023-03-16T16:42:46.185Z,100935.47
2023-03-16T16:45:20.893Z,100917.44
2023-03-16T16:47:52.336Z,100920.94
2023-03-16T16:50:22.664Z,100924.50
2023-03-16T16:52:51.668Z,100920.13
2023-03-16T16:55:19.697Z,100918.47
2023-03-16T16:57:49.334Z,100931.72
2023-03-16T17:00:21.926Z,100920.44
2023-03-16T17:02:53.433Z,100931.06
2023-03-16T17:05:23.538Z,100934.00
2023-03-16T17:07:51.990Z,100936.91
2023-03-16T17:10:22.208Z,100937.97
2023-03-16T17:12:51.708Z,100934.13
2023-03-16T17:15:27.914Z,100928.91
2023-03-16T17:18:03.010Z,100926.38
2023-03-16T17:20:31.186Z,100936.03
2023-03-16T17:23:00.117Z,100927.63
2023-03-16T17:25:30.273Z,100931.84
2023-03-16T17:27:58.609Z,100927.38
2023-03-16T17:30:29.956Z,100934.66
2023-03-16T17:33:03.406Z,100933.47
2023-03-16T17:35:31.942Z,100929.16
2023-03-16T17:37:59.858Z,100931.03
2023-03-16T17:40:27.722Z,100934.53
2023-03-16T17:42:56.529Z,100922.91
2023-03-16T17:45:28.832Z,100927.81
2023-03-16T17:47:57.094Z,100935.44
2023-03-16T17:50:29.657Z,100933.66
2023-03-16T17:52:57.621Z,100928.38
2023-03-16T17:55:25.959Z,100931.53
2023-03-16T17:57:54.895Z,100919.09
2023-03-16T18:00:26.648Z,100923.31
2023-03-16T18:02:56.750Z,100924.63
2023-03-16T18:05:26.534Z,100921.78
2023-03-16T18:07:55.088Z,100925.78
2023-03-16T18:10:25.458Z,100927.06
2023-03-16T18:13:00.741Z,100928.31
2023-03-16T18:15:32.236Z,100926.09
2023-03-16T18:18:02.559Z,100926.78
2023-03-16T18:20:34.690Z,100932.41
2023-03-16T18:23:04.834Z,100927.69
2023-03-16T18:25:36.064Z,100926.88
2023-03-16T18:28:03.808Z,100925.28
2023-03-16T18:30:32.835Z,100929.41
2023-03-16T18:33:03.998Z,100927.31
2023-03-16T18:35:32.237Z,100937.53
2023-03-16T18:38:00.633Z,100933.56
2023-03-16T18:40:29.222Z,100936.03
2023-03-16T18:42:57.249Z,100942.59
2023-03-16T18:45:27.885Z,100942.59
2023-03-16T18:47:58.015Z,100949.97
2023-03-16T18:50:28.730Z,100947.63
2023-03-16T18:52:57.380Z,100940.91
2023-03-16T18:55:27.137Z,100933.41
2023-03-16T18:57:56.566Z,100939.00
2023-03-16T19:00:27.200Z,100934.34
2023-03-16T19:02:57.409Z,100940.44
2023-03-16T19:05:33.789Z,100934.91
2023-03-16T19:08:01.796Z,100922.94
2023-03-16T19:10:32.835Z,100914.50
2023-03-16T19:13:01.316Z,100908.75
2023-03-16T19:15:31.918Z,100914.59
2023-03-16T19:18:00.002Z,100908.84
2023-03-16T19:20:31.369Z,100902.88
2023-03-16T19:23:03.844Z,100899.81
2023-03-16T19:25:36.059Z,100894.41
2023-03-16T19:28:05.733Z,100899.56
2023-03-16T19:30:35.630Z,100903.09
2023-03-16T19:33:03.769Z,100907.66
2023-03-16T19:35:50.407Z,100898.75
2023-03-16T19:38:19.316Z,100896.28
2023-03-16T19:40:48.820Z,100883.56
2023-03-16T19:43:19.103Z,100892.38
2023-03-16T19:45:48.311Z,100874.00
2023-03-16T19:48:20.411Z,100875.28
2023-03-16T19:50:50.237Z,100880.88
2023-03-16T19:53:20.109Z,100887.31
2023-03-16T19:55:49.091Z,100876.78
2023-03-16T19:58:24.629Z,100873.50
2023-03-16T20:00:52.418Z,100877.47
2023-03-16T20:03:20.220Z,100877.47
2023-03-16T20:05:49.295Z,100881.44
2023-03-16T20:08:25.428Z,100874.25
2023-03-16T20:10:55.348Z,100868.66
2023-03-16T20:13:24.722Z,100862.69
2023-03-16T20:15:53.313Z,100855.66
2023-03-16T20:18:21.543Z,100844.28
2023-03-16T20:20:50.884Z,100847.22
2023-03-16T20:23:21.414Z,100847.44
2023-03-16T20:25:51.016Z,100844.97
2023-03-16T20:28:21.317Z,100847.66
2023-03-16T20:30:50.170Z,100834.88
2023-03-16T20:33:20.719Z,100834.88
2023-03-16T20:35:53.320Z,100834.06
2023-03-16T20:38:21.852Z,100828.91
2023-03-16T20:40:52.234Z,100832.66
2023-03-16T20:43:25.096Z,100825.84
2023-03-16T20:45:54.405Z,100814.28
2023-03-16T20:48:22.580Z,100814.50
2023-03-16T20:50:51.933Z,100811.00
2023-03-16T20:53:19.704Z,100818.47
2023-03-16T20:55:47.636Z,100816.81
2023-03-16T20:58:19.986Z,100817.88
2023-03-16T21:00:50.105Z,100810.84
2023-03-16T21:03:20.649Z,100810.84
2023-03-16T21:05:49.083Z,100793.53
2023-03-16T21:08:18.965Z,100804.88
2023-03-16T21:10:49.797Z,100813.16
2023-03-16T21:13:21.627Z,100812.34
2023-03-16T21:15:50.817Z,100816.09
2023-03-16T21:18:20.827Z,100802.88
2023-03-16T21:20:50.056Z,100800.19
2023-03-16T21:23:21.634Z,100804.13
2023-03-16T21:25:51.752Z,100798.75
2023-03-16T21:28:21.837Z,100811.38
2023-03-16T21:30:51.975Z,100804.13
2023-03-16T21:33:25.876Z,100792.78
2023-03-16T21:35:54.030Z,100794.66
2023-03-16T21:38:24.102Z,100793.84
2023-03-16T21:40:51.958Z,100808.09
2023-03-16T21:43:20.022Z,100807.50
2023-03-16T21:45:49.151Z,100809.59
2023-03-16T21:48:21.535Z,100802.59
2023-03-16T21:50:51.020Z,100803.03
2023-03-16T21:53:22.088Z,100803.63
2023-03-16T21:55:52.050Z,100787.34
2023-03-16T21:58:19.936Z,100787.13
2023-03-16T22:00:48.467Z,100792.50
2023-03-16T22:03:29.586Z,100787.34
2023-03-16T22:06:01.498Z,100769.56
2023-03-16T22:08:31.108Z,100766.06
2023-03-16T22:11:01.568Z,100777.88
2023-03-16T22:13:29.826Z,100770.03
2023-03-16T22:15:59.134Z,100762.78
2023-03-16T22:18:30.370Z,100768.38
2023-03-16T22:20:59.957Z,100768.25
2023-03-16T22:23:34.061Z,100779.38
2023-03-16T22:26:04.172Z,100779.38
2023-03-16T22:28:32.852Z,100791.16
2023-03-16T22:31:03.560Z,100794.91
2023-03-16T22:33:35.644Z,100799.47
2023-03-16T22:36:08.210Z,100795.94
2023-03-16T22:38:36.686Z,100805.88
2023-03-16T22:41:06.209Z,100787.28
2023-03-16T22:43:38.065Z,100780.50
2023-03-16T22:46:06.203Z,100778.63
2023-03-16T22:48:34.000Z,100780.50
2023-03-16T22:51:04.861Z,100771.59
2023-03-16T22:53:38.908Z,100769.16
2023-03-16T22:56:10.229Z,100774.53
2023-03-16T22:58:40.405Z,100768.31
2023-03-16T23:01:17.056Z,100752.41
2023-03-16T23:03:45.790Z,100753.00
2023-03-16T23:06:18.216Z,100757.56
2023-03-16T23:08:46.141Z,100761.91
2023-03-16T23:11:19.632Z,100761.31
2023-03-16T23:13:47.710Z,100760.47
2023-03-16T23:16:20.974Z,100759.44
2023-03-16T23:18:49.704Z,100761.53
2023-03-16T23:21:20.615Z,100773.09
2023-03-16T23:24:02.729Z,100758.84
2023-03-16T23:26:33.306Z,100753.69
2023-03-16T23:29:01.061Z,100758.25
2023-03-16T23:31:29.015Z,100755.56
2023-03-16T23:33:56.953Z,100753.09
2023-03-16T23:36:26.148Z,100750.41
2023-03-16T23:38:54.299Z,100754.38
2023-03-16T23:41:24.482Z,100749.81
2023-03-16T23:43:54.708Z,100740.09
2023-03-16T23:46:24.790Z,100741.97
2023-03-16T23:48:56.376Z,100744.88
2023-03-16T23:51:27.158Z,100747.78
2023-03-16T23:53:55.724Z,100741.59
2023-03-16T23:56:23.489Z,100757.72
2023-03-16T23:58:51.729Z,100762.50
